This is the latest recevied weather packets stored in our database for station/object W6UA-13. If no packets are shown the sender has not sent any weather packets the latest 10 day(s).
| Time | Temp. | Humidity | Pressure | Rain* | Wind** | Luminosity | Snow |
|---|---|---|---|---|---|---|---|
| 1777077302 | 17.22° C | 63% | 1013.3 hPa | 0 mm | - | 287 W/m² | - |
| 1777076401 | 17.78° C | 60% | 1013.2 hPa | 0 mm | - | 417 W/m² | - |
| 1777075501 | 17.78° C | 63% | 1013 hPa | 0 mm | - | 466 W/m² | - |
| 1777074601 | 17.78° C | 63% | 1012.9 hPa | 0 mm | - | 515 W/m² | - |
| 1777073701 | 17.78° C | 62% | 1013 hPa | 0 mm | - | 559 W/m² | - |
| 1777072801 | 18.33° C | 60% | 1013.2 hPa | 0 mm | - | 631 W/m² | - |
| 1777071901 | 18.89° C | 57% | 1013 hPa | 0 mm | - | 642 W/m² | - |
| 1777071002 | 19.44° C | 58% | 1013.1 hPa | 0 mm | - | 701 W/m² | - |
| 1777070102 | 20° C | 57% | 1013.2 hPa | 0 mm | - | 717 W/m² | - |
| 1777069202 | 19.44° C | 57% | 1013.3 hPa | 0 mm | - | 747 W/m² | - |
| 1777068302 | 19.44° C | 57% | 1013.3 hPa | 0 mm | - | 795 W/m² | - |
| 1777067402 | 20° C | 58% | 1013.4 hPa | 0 mm | - | 802 W/m² | - |
| 1777066502 | 20.56° C | 58% | 1013.4 hPa | 0 mm | - | 826 W/m² | - |
| 1777065602 | 20° C | 59% | 1013.4 hPa | 0 mm | - | 835 W/m² | - |
| 1777064702 | 20° C | 58% | 1013.6 hPa | 0 mm | - | 854 W/m² | - |
| 1777063802 | 19.44° C | 60% | 1013.6 hPa | 0 mm | - | 868 W/m² | - |
| 1777062902 | 20° C | 59% | 1013.5 hPa | 0 mm | - | 870 W/m² | - |
| 1777062002 | 18.89° C | 62% | 1013.5 hPa | 0 mm | - | 877 W/m² | - |
| 1777061102 | 18.33° C | 62% | 1013.6 hPa | 0 mm | - | 877 W/m² | - |
| 1777060202 | 18.89° C | 63% | 1013.8 hPa | 0 mm | - | 877 W/m² | - |
| 1777059302 | 19.44° C | 61% | 1013.9 hPa | 0 mm | - | 759 W/m² | - |
| 1777058402 | 20° C | 61% | 1013.9 hPa | 0 mm | - | 861 W/m² | - |
| 1777057502 | 20° C | 60% | 1014.1 hPa | 0 mm | - | 441 W/m² | - |
| 1777056602 | 20° C | 61% | 1014.2 hPa | 0 mm | - | 830 W/m² | - |
| 1777055702 | 19.44° C | 63% | 1014.1 hPa | 0 mm | - | 810 W/m² | - |
* Rain latest hour (hover to see other rain measurements)
** Current wind speed in m/s (hover to see current wind gust speed)